createdAt,value
2018-03-16T00:00:37.966Z,40.40
2018-03-16T00:01:37.974Z,39.00
2018-03-16T00:02:37.979Z,39.20
2018-03-16T00:03:37.979Z,42.20
2018-03-16T00:04:37.974Z,42.60
2018-03-16T00:05:37.983Z,43.80
2018-03-16T00:06:37.985Z,43.30
2018-03-16T00:07:37.996Z,43.10
2018-03-16T00:08:37.994Z,45.70
2018-03-16T00:09:37.995Z,45.20
2018-03-16T00:10:37.994Z,51.00
2018-03-16T00:11:37.999Z,47.10
2018-03-16T00:12:37.999Z,49.60
2018-03-16T00:13:38.001Z,47.00
2018-03-16T00:14:38.018Z,52.20
2018-03-16T00:15:38.018Z,50.30
2018-03-16T00:16:38.018Z,50.10
2018-03-16T00:17:38.017Z,54.00
2018-03-16T00:18:38.010Z,49.50
2018-03-16T00:19:38.014Z,52.60
2018-03-16T00:20:38.018Z,55.60
2018-03-16T00:21:38.020Z,53.70
2018-03-16T00:22:38.026Z,55.10
2018-03-16T00:23:38.023Z,52.30
2018-03-16T00:24:38.025Z,55.20
2018-03-16T00:25:38.595Z,56.70
2018-03-16T00:26:38.022Z,57.70
2018-03-16T00:27:38.033Z,54.50
2018-03-16T00:28:38.033Z,55.10
2018-03-16T00:29:38.034Z,54.20
2018-03-16T00:30:38.039Z,53.40
2018-03-16T00:31:38.050Z,54.80
2018-03-16T00:32:38.049Z,55.70
2018-03-16T00:33:38.054Z,58.80
2018-03-16T00:34:38.042Z,55.90
2018-03-16T00:35:38.059Z,55.40
2018-03-16T00:36:38.054Z,57.10
2018-03-16T00:37:38.057Z,60.80
2018-03-16T00:38:38.064Z,59.40
2018-03-16T00:39:38.067Z,58.80
2018-03-16T00:40:38.068Z,55.70
2018-03-16T00:41:38.096Z,57.50
2018-03-16T00:42:38.065Z,53.00
2018-03-16T00:43:38.063Z,58.80
2018-03-16T00:44:38.072Z,57.20
2018-03-16T00:45:38.076Z,61.60
2018-03-16T00:46:38.067Z,60.50
2018-03-16T00:47:38.078Z,59.10
2018-03-16T00:48:38.074Z,56.80
2018-03-16T00:49:38.082Z,55.80
2018-03-16T00:50:38.076Z,55.60
2018-03-16T00:51:38.082Z,57.80
2018-03-16T00:52:38.082Z,56.90
2018-03-16T00:53:38.092Z,54.00
2018-03-16T00:54:38.086Z,58.80
2018-03-16T00:55:38.090Z,53.10
2018-03-16T00:56:38.091Z,53.70
2018-03-16T00:57:38.101Z,55.50
2018-03-16T00:58:38.102Z,50.20
2018-03-16T00:59:38.128Z,53.60
2018-03-16T01:00:38.099Z,53.40
2018-03-16T01:01:38.117Z,52.80
2018-03-16T01:02:38.122Z,54.50
2018-03-16T01:03:38.138Z,51.50
2018-03-16T01:04:38.107Z,53.40
2018-03-16T01:05:38.106Z,50.90
2018-03-16T01:06:38.110Z,50.50
2018-03-16T01:07:38.111Z,52.80
2018-03-16T01:08:38.115Z,53.70
2018-03-16T01:09:38.112Z,52.40
2018-03-16T01:10:38.114Z,51.50
2018-03-16T01:11:38.120Z,53.90
2018-03-16T01:12:38.217Z,54.40
2018-03-16T01:13:38.116Z,53.50
2018-03-16T01:14:38.126Z,54.90
2018-03-16T01:15:38.130Z,55.90
2018-03-16T01:16:38.137Z,58.90
2018-03-16T01:17:38.143Z,56.90
2018-03-16T01:18:38.139Z,57.00
2018-03-16T01:19:38.145Z,55.20
2018-03-16T01:20:38.157Z,54.60
2018-03-16T01:21:38.152Z,53.70
2018-03-16T01:22:38.137Z,54.60
2018-03-16T01:23:38.172Z,58.30
2018-03-16T01:24:38.151Z,53.90
2018-03-16T01:25:38.155Z,58.30
2018-03-16T01:26:38.153Z,56.20
2018-03-16T01:27:38.146Z,53.40
2018-03-16T01:28:38.151Z,57.50
2018-03-16T01:29:38.161Z,56.60
2018-03-16T01:30:38.161Z,54.30
2018-03-16T01:31:38.166Z,54.40
2018-03-16T01:32:38.160Z,56.90
2018-03-16T01:33:38.161Z,61.30
2018-03-16T01:34:38.167Z,55.60
2018-03-16T01:35:38.167Z,56.40
2018-03-16T01:36:38.176Z,55.40
2018-03-16T01:37:38.176Z,56.10
2018-03-16T01:38:38.185Z,56.10
2018-03-16T01:39:38.183Z,54.10
2018-03-16T01:40:38.183Z,57.30
2018-03-16T01:41:38.177Z,53.70
2018-03-16T01:42:38.193Z,53.60
2018-03-16T01:43:38.200Z,58.40
2018-03-16T01:44:38.196Z,56.20
2018-03-16T01:45:38.205Z,58.40
2018-03-16T01:46:38.199Z,56.00
2018-03-16T01:47:38.198Z,58.10
2018-03-16T01:48:38.202Z,53.30
2018-03-16T01:49:38.229Z,58.20
2018-03-16T01:50:38.195Z,56.10
2018-03-16T01:51:38.199Z,58.80
2018-03-16T01:52:38.208Z,54.10
2018-03-16T01:53:38.201Z,55.80
2018-03-16T01:54:38.201Z,55.70
2018-03-16T01:55:38.217Z,55.40
2018-03-16T01:56:38.212Z,53.90
2018-03-16T01:57:38.212Z,55.10
2018-03-16T01:58:39.099Z,57.20
2018-03-16T01:59:38.220Z,55.70
2018-03-16T02:00:38.226Z,56.40
2018-03-16T02:01:38.218Z,55.20
2018-03-16T02:02:38.241Z,54.90
2018-03-16T02:03:38.240Z,53.20
2018-03-16T02:04:38.257Z,57.40
2018-03-16T02:05:38.236Z,53.20
2018-03-16T02:06:38.243Z,53.00
2018-03-16T02:07:38.234Z,57.40
2018-03-16T02:08:38.237Z,58.40
2018-03-16T02:09:38.253Z,52.90
2018-03-16T02:10:38.250Z,53.10
2018-03-16T02:11:38.245Z,53.10
2018-03-16T02:12:38.251Z,54.50
2018-03-16T02:13:38.247Z,56.40
2018-03-16T02:14:38.252Z,53.00
2018-03-16T02:15:38.257Z,56.70
2018-03-16T02:16:38.261Z,58.00
2018-03-16T02:17:38.255Z,58.00
2018-03-16T02:18:38.255Z,56.70
2018-03-16T02:19:38.267Z,54.30
2018-03-16T02:20:38.269Z,56.70
2018-03-16T02:21:38.265Z,57.50
2018-03-16T02:22:38.271Z,59.30
2018-03-16T02:23:38.300Z,57.60
2018-03-16T02:24:38.282Z,57.10
2018-03-16T02:25:38.281Z,57.00
2018-03-16T02:26:38.286Z,60.50
2018-03-16T02:27:38.303Z,58.00
2018-03-16T02:28:38.291Z,60.60
2018-03-16T02:29:38.285Z,58.90
2018-03-16T02:30:40.465Z,58.10
2018-03-16T02:31:39.963Z,58.50
2018-03-16T02:32:38.294Z,59.00
2018-03-16T02:33:38.299Z,57.60
2018-03-16T02:34:38.298Z,60.80
2018-03-16T02:35:38.310Z,64.90
2018-03-16T02:36:38.291Z,59.10
2018-03-16T02:37:38.312Z,60.70
2018-03-16T02:38:38.305Z,60.00
2018-03-16T02:39:38.313Z,59.20
2018-03-16T02:40:38.308Z,62.00
2018-03-16T02:41:38.308Z,62.40
2018-03-16T02:42:38.311Z,61.10
2018-03-16T02:43:38.319Z,62.20
2018-03-16T02:44:38.324Z,62.30
2018-03-16T02:45:38.325Z,66.00
2018-03-16T02:46:38.327Z,65.00
2018-03-16T02:47:38.334Z,61.90
2018-03-16T02:48:38.332Z,63.30
2018-03-16T02:49:38.328Z,67.00
2018-03-16T02:50:38.392Z,61.60
2018-03-16T02:51:38.324Z,63.00
2018-03-16T02:52:38.338Z,63.40
2018-03-16T02:53:38.335Z,65.10
2018-03-16T02:54:38.338Z,66.30
2018-03-16T02:55:38.343Z,67.20
2018-03-16T02:56:38.361Z,59.80
2018-03-16T02:57:38.357Z,65.30
2018-03-16T02:58:38.344Z,64.90
2018-03-16T02:59:38.359Z,66.50
2018-03-16T03:00:38.348Z,61.60
2018-03-16T03:01:38.348Z,60.60
2018-03-16T03:02:38.352Z,64.10
2018-03-16T03:03:38.357Z,65.30
2018-03-16T03:04:38.364Z,64.40
2018-03-16T03:05:38.398Z,65.30
2018-03-16T03:06:38.363Z,67.20
2018-03-16T03:07:38.374Z,69.10
2018-03-16T03:08:38.370Z,66.60
2018-03-16T03:09:38.376Z,65.80
2018-03-16T03:10:38.365Z,62.80
2018-03-16T03:11:38.379Z,66.20
2018-03-16T03:12:38.382Z,63.20
2018-03-16T03:13:38.377Z,64.80
2018-03-16T03:14:38.372Z,66.00
2018-03-16T03:15:38.380Z,67.40
2018-03-16T03:16:38.385Z,61.10
2018-03-16T03:17:38.379Z,63.60
2018-03-16T03:18:38.382Z,65.30
2018-03-16T03:19:38.394Z,60.50
2018-03-16T03:20:38.393Z,65.20
2018-03-16T03:21:38.395Z,63.80
2018-03-16T03:22:38.397Z,66.30
2018-03-16T03:23:38.397Z,65.90
2018-03-16T03:24:38.406Z,64.60
2018-03-16T03:25:38.399Z,62.50
2018-03-16T03:26:38.417Z,66.60
2018-03-16T03:27:38.415Z,66.40
2018-03-16T03:28:38.469Z,63.70
2018-03-16T03:29:38.406Z,66.60
2018-03-16T03:30:38.405Z,63.20
2018-03-16T03:31:38.415Z,64.90
2018-03-16T03:32:38.414Z,69.10
2018-03-16T03:33:38.415Z,62.00
2018-03-16T03:34:38.424Z,67.70
2018-03-16T03:35:38.422Z,65.20
2018-03-16T03:36:38.419Z,67.30
2018-03-16T03:37:38.426Z,69.80
2018-03-16T03:38:38.422Z,70.00
2018-03-16T03:39:38.430Z,67.60
2018-03-16T03:40:38.434Z,67.00
2018-03-16T03:41:38.434Z,73.30
2018-03-16T03:42:38.438Z,69.40
2018-03-16T03:43:38.441Z,68.50
2018-03-16T03:44:38.453Z,68.10
2018-03-16T03:45:38.450Z,68.30
2018-03-16T03:46:38.452Z,71.10
2018-03-16T03:47:38.463Z,69.40
2018-03-16T03:48:38.453Z,69.90
2018-03-16T03:49:38.453Z,67.90
2018-03-16T03:50:38.453Z,67.80
2018-03-16T03:51:38.463Z,69.50
2018-03-16T03:52:38.465Z,73.70
2018-03-16T03:53:38.462Z,71.60
2018-03-16T03:54:38.462Z,73.50
2018-03-16T03:55:38.465Z,80.10
2018-03-16T03:56:38.468Z,73.40
2018-03-16T03:57:38.467Z,76.80
2018-03-16T03:58:38.498Z,75.10
2018-03-16T03:59:38.485Z,77.50
2018-03-16T04:00:38.476Z,80.30
2018-03-16T04:01:38.480Z,81.10
2018-03-16T04:02:38.481Z,77.40
2018-03-16T04:03:38.485Z,79.40
2018-03-16T04:04:38.492Z,81.80
2018-03-16T04:05:38.484Z,85.00
2018-03-16T04:06:38.504Z,83.50
2018-03-16T04:07:38.496Z,82.30
2018-03-16T04:08:38.509Z,82.60
2018-03-16T04:09:38.515Z,83.50
2018-03-16T04:10:38.497Z,90.80
2018-03-16T04:11:38.490Z,88.20
2018-03-16T04:12:38.501Z,89.40
2018-03-16T04:13:38.490Z,92.50
2018-03-16T04:14:38.505Z,84.90
2018-03-16T04:15:38.499Z,90.90
2018-03-16T04:16:38.509Z,95.50
2018-03-16T04:17:38.499Z,97.30
2018-03-16T04:18:38.501Z,92.10
2018-03-16T04:19:39.132Z,93.40
2018-03-16T04:20:38.510Z,99.00
2018-03-16T04:21:38.514Z,95.20
2018-03-16T04:22:38.512Z,97.40
2018-03-16T04:23:38.536Z,96.70
2018-03-16T04:24:38.518Z,95.80
2018-03-16T04:25:38.521Z,98.60
2018-03-16T04:26:38.535Z,96.40
2018-03-16T04:27:38.534Z,96.20
2018-03-16T04:28:38.536Z,102.30
2018-03-16T04:29:38.544Z,98.10
2018-03-16T04:30:38.525Z,97.30
2018-03-16T04:31:38.564Z,97.20
2018-03-16T04:32:38.555Z,98.30
2018-03-16T04:33:38.537Z,101.90
2018-03-16T04:34:38.539Z,99.20
2018-03-16T04:35:38.536Z,103.40
2018-03-16T04:36:38.538Z,99.00
2018-03-16T04:37:38.542Z,103.30
2018-03-16T04:38:38.537Z,100.90
2018-03-16T04:39:38.549Z,101.30
2018-03-16T04:40:38.558Z,104.30
2018-03-16T04:41:38.554Z,98.80
2018-03-16T04:42:38.557Z,100.40
2018-03-16T04:43:38.551Z,100.90
2018-03-16T04:44:38.556Z,103.10
2018-03-16T04:45:38.560Z,98.70
2018-03-16T04:46:38.563Z,105.50
2018-03-16T04:47:38.567Z,102.60
2018-03-16T04:48:38.565Z,110.40
2018-03-16T04:49:38.592Z,103.00
2018-03-16T04:50:38.586Z,106.20
2018-03-16T04:51:38.579Z,106.80
2018-03-16T04:52:38.578Z,110.80
2018-03-16T04:53:38.565Z,114.20
2018-03-16T04:54:38.576Z,108.00
2018-03-16T04:55:38.575Z,106.80
2018-03-16T04:56:38.579Z,106.40
2018-03-16T04:57:38.573Z,107.90
2018-03-16T04:58:38.584Z,112.70
2018-03-16T04:59:38.587Z,108.50
2018-03-16T05:00:38.580Z,107.10
2018-03-16T05:01:38.598Z,105.20
2018-03-16T05:02:38.585Z,103.20
2018-03-16T05:03:38.590Z,103.00
2018-03-16T05:04:38.584Z,108.00
2018-03-16T05:05:38.592Z,101.90
2018-03-16T05:06:38.594Z,109.80
2018-03-16T05:07:38.604Z,106.40
2018-03-16T05:08:38.599Z,111.10
2018-03-16T05:09:38.609Z,108.50
2018-03-16T05:10:38.629Z,105.90
2018-03-16T05:11:38.612Z,108.50
2018-03-16T05:12:38.634Z,109.70
2018-03-16T05:13:38.611Z,103.60
2018-03-16T05:14:38.602Z,107.90
2018-03-16T05:15:38.657Z,103.00
2018-03-16T05:16:39.148Z,104.40
2018-03-16T05:17:38.610Z,111.40
2018-03-16T05:18:38.610Z,106.20
2018-03-16T05:19:38.612Z,105.50
2018-03-16T05:20:38.615Z,103.90
2018-03-16T05:21:38.618Z,103.60
2018-03-16T05:22:38.614Z,103.90
2018-03-16T05:23:38.623Z,104.70
2018-03-16T05:24:38.620Z,115.30
2018-03-16T05:25:38.622Z,111.80
2018-03-16T05:26:38.620Z,102.00
2018-03-16T05:27:38.624Z,104.40
2018-03-16T05:28:38.631Z,101.50
2018-03-16T05:29:38.631Z,107.20
2018-03-16T05:30:38.646Z,116.00
2018-03-16T05:31:38.640Z,108.80
2018-03-16T05:32:38.641Z,107.50
2018-03-16T05:33:38.656Z,109.90
2018-03-16T05:34:38.652Z,104.10
2018-03-16T05:35:38.645Z,108.00
2018-03-16T05:36:38.643Z,110.70
2018-03-16T05:37:38.650Z,116.20
2018-03-16T05:38:38.649Z,122.40
2018-03-16T05:39:38.700Z,108.90
2018-03-16T05:40:38.709Z,115.90
2018-03-16T05:41:38.697Z,117.00
2018-03-16T05:42:38.658Z,119.40
2018-03-16T05:43:38.657Z,118.90
2018-03-16T05:44:38.738Z,121.10
2018-03-16T05:45:38.671Z,115.10
2018-03-16T05:46:38.761Z,109.70
2018-03-16T05:47:38.762Z,113.80
2018-03-16T05:48:38.759Z,118.70
2018-03-16T05:49:38.674Z,113.30
2018-03-16T05:50:38.733Z,122.10
2018-03-16T05:51:38.676Z,119.70
2018-03-16T05:52:38.689Z,114.50
2018-03-16T05:53:38.669Z,115.60
2018-03-16T05:54:38.688Z,126.90
2018-03-16T05:55:38.684Z,116.10
2018-03-16T05:56:38.699Z,122.50
2018-03-16T05:57:38.856Z,121.30
2018-03-16T05:58:38.689Z,120.90
2018-03-16T05:59:38.696Z,115.30
2018-03-16T06:00:38.751Z,120.00
2018-03-16T06:01:38.676Z,124.40
2018-03-16T06:02:38.680Z,126.00
2018-03-16T06:03:38.690Z,129.20
2018-03-16T06:04:38.723Z,124.20
2018-03-16T06:05:38.687Z,122.80
2018-03-16T06:06:38.697Z,124.30
2018-03-16T06:07:39.049Z,117.90
2018-03-16T06:08:38.708Z,113.40
2018-03-16T06:09:38.708Z,123.00
2018-03-16T06:10:38.698Z,128.00
2018-03-16T06:11:38.717Z,122.90
2018-03-16T06:12:38.707Z,119.90
2018-03-16T06:13:38.716Z,117.80
2018-03-16T06:14:38.716Z,117.30
2018-03-16T06:15:38.715Z,109.00
2018-03-16T06:16:38.713Z,112.00
2018-03-16T06:17:38.722Z,122.80
2018-03-16T06:18:38.725Z,121.30
2018-03-16T06:19:38.757Z,128.70
2018-03-16T06:20:38.716Z,130.90
2018-03-16T06:21:38.735Z,118.30
2018-03-16T06:22:38.733Z,121.00
2018-03-16T06:23:38.717Z,132.30
2018-03-16T06:24:38.717Z,119.40
2018-03-16T06:25:38.721Z,130.90
2018-03-16T06:26:38.724Z,129.80
2018-03-16T06:27:38.730Z,121.60
2018-03-16T06:28:38.725Z,129.20
2018-03-16T06:29:38.732Z,140.80
2018-03-16T06:30:38.735Z,151.10
2018-03-16T06:31:38.741Z,136.50
2018-03-16T06:32:38.764Z,139.10
2018-03-16T06:33:38.769Z,132.20
2018-03-16T06:34:38.746Z,141.00
2018-03-16T06:35:38.738Z,140.00
2018-03-16T06:36:38.756Z,139.10
2018-03-16T06:37:38.756Z,130.80
2018-03-16T06:38:38.747Z,137.60
2018-03-16T06:39:38.767Z,139.90
2018-03-16T06:40:38.780Z,144.30
2018-03-16T06:41:38.754Z,128.80
2018-03-16T06:42:38.752Z,128.50
2018-03-16T06:43:38.745Z,134.20
2018-03-16T06:44:38.840Z,139.50
2018-03-16T06:45:38.765Z,118.10
2018-03-16T06:46:38.755Z,117.90
2018-03-16T06:47:38.760Z,120.70
2018-03-16T06:48:38.760Z,122.00
2018-03-16T06:49:38.766Z,126.20
2018-03-16T06:50:38.761Z,128.20
2018-03-16T06:51:38.771Z,118.40
2018-03-16T06:52:38.769Z,121.50
2018-03-16T06:53:38.786Z,117.40
2018-03-16T06:54:38.816Z,110.40
2018-03-16T06:55:38.793Z,120.20
2018-03-16T06:56:38.804Z,115.70
2018-03-16T06:57:38.781Z,109.80
2018-03-16T06:58:38.790Z,111.10
2018-03-16T06:59:38.805Z,104.60
2018-03-16T07:00:38.780Z,108.20
2018-03-16T07:01:38.778Z,102.20
2018-03-16T07:02:38.779Z,108.30
2018-03-16T07:03:38.801Z,110.40
2018-03-16T07:04:38.787Z,104.00
2018-03-16T07:05:38.790Z,107.60
2018-03-16T07:06:38.788Z,98.60
2018-03-16T07:07:38.807Z,97.20
2018-03-16T07:08:38.800Z,97.90
2018-03-16T07:09:38.811Z,101.30
2018-03-16T07:10:38.804Z,101.70
2018-03-16T07:11:38.807Z,103.50
2018-03-16T07:12:38.835Z,106.60
2018-03-16T07:13:38.825Z,105.90
2018-03-16T07:14:38.843Z,113.60
2018-03-16T07:15:38.844Z,110.20
2018-03-16T07:16:38.828Z,116.10
2018-03-16T07:17:38.901Z,108.20
2018-03-16T07:18:38.827Z,110.80
2018-03-16T07:19:38.831Z,108.90
2018-03-16T07:20:38.842Z,110.20
2018-03-16T07:21:38.815Z,108.20
2018-03-16T07:22:38.819Z,106.10
2018-03-16T07:23:38.891Z,106.70
2018-03-16T07:24:38.835Z,104.80
2018-03-16T07:25:38.828Z,102.10
2018-03-16T07:26:38.822Z,101.30
2018-03-16T07:27:38.825Z,107.60
2018-03-16T07:28:38.826Z,110.30
2018-03-16T07:29:38.874Z,108.40
2018-03-16T07:30:38.850Z,105.60
2018-03-16T07:31:38.864Z,101.00
2018-03-16T07:32:38.853Z,107.80
2018-03-16T07:33:38.839Z,107.10
2018-03-16T07:34:38.837Z,103.70
2018-03-16T07:35:38.873Z,100.20
2018-03-16T07:36:38.855Z,111.60
2018-03-16T07:37:38.843Z,98.80
2018-03-16T07:38:38.915Z,94.50
2018-03-16T07:39:38.862Z,95.10
2018-03-16T07:40:38.857Z,90.20
2018-03-16T07:41:38.875Z,87.90
2018-03-16T07:42:38.849Z,94.40
2018-03-16T07:43:38.856Z,94.50
2018-03-16T07:44:38.855Z,95.50
2018-03-16T07:45:38.855Z,91.90
2018-03-16T07:46:38.864Z,95.80
2018-03-16T07:47:38.890Z,100.00
2018-03-16T07:48:38.880Z,94.30
2018-03-16T07:49:38.880Z,92.10
2018-03-16T07:50:38.875Z,98.00
2018-03-16T07:51:38.875Z,95.20
2018-03-16T07:52:38.872Z,104.60
2018-03-16T07:53:38.896Z,106.90
2018-03-16T07:54:38.891Z,95.40
2018-03-16T07:55:38.880Z,104.60
2018-03-16T07:56:38.888Z,107.30
2018-03-16T07:57:38.888Z,105.60
2018-03-16T07:58:38.879Z,114.20
2018-03-16T07:59:38.881Z,106.90
2018-03-16T08:00:38.890Z,111.30
2018-03-16T08:01:38.885Z,113.20
2018-03-16T08:02:38.894Z,97.60
2018-03-16T08:03:38.922Z,99.00
2018-03-16T08:04:38.892Z,99.80
2018-03-16T08:05:38.893Z,98.80
2018-03-16T08:06:39.059Z,95.60
2018-03-16T08:07:39.029Z,85.50
2018-03-16T08:08:38.910Z,90.30
2018-03-16T08:09:38.896Z,86.60
2018-03-16T08:10:38.906Z,93.10
2018-03-16T08:11:38.906Z,86.10
2018-03-16T08:12:38.911Z,78.60
2018-03-16T08:13:38.921Z,74.00
2018-03-16T08:14:38.917Z,74.20
2018-03-16T08:15:38.919Z,74.20
2018-03-16T08:16:38.923Z,68.80
2018-03-16T08:17:38.916Z,72.40
2018-03-16T08:18:38.925Z,73.50
2018-03-16T08:19:38.914Z,72.30
2018-03-16T08:20:38.919Z,73.20
2018-03-16T08:21:38.932Z,67.90
2018-03-16T08:22:38.933Z,67.00
2018-03-16T08:23:38.925Z,66.60
2018-03-16T08:24:38.936Z,62.50
2018-03-16T08:25:38.942Z,64.30
2018-03-16T08:26:38.944Z,65.70
2018-03-16T08:27:38.940Z,66.90
2018-03-16T08:28:38.942Z,70.50
2018-03-16T08:29:38.949Z,72.10
2018-03-16T08:30:38.948Z,73.20
2018-03-16T08:31:38.959Z,72.90
2018-03-16T08:32:38.968Z,77.90
2018-03-16T08:33:38.945Z,77.80
2018-03-16T08:34:38.953Z,78.40
2018-03-16T08:35:38.948Z,76.90
2018-03-16T08:36:38.960Z,77.90
2018-03-16T08:37:38.952Z,78.50
2018-03-16T08:38:39.022Z,78.70
2018-03-16T08:39:38.978Z,78.60
2018-03-16T08:40:38.964Z,72.50
2018-03-16T08:41:38.958Z,72.50
2018-03-16T08:42:38.967Z,73.50
2018-03-16T08:43:38.981Z,76.40
2018-03-16T08:44:38.985Z,75.20
2018-03-16T08:45:39.009Z,77.20
2018-03-16T08:46:38.978Z,73.60
2018-03-16T08:47:39.058Z,73.40
2018-03-16T08:48:39.072Z,70.20
2018-03-16T08:49:38.988Z,68.40
2018-03-16T08:50:38.983Z,65.70
2018-03-16T08:51:38.990Z,69.50
2018-03-16T08:52:38.995Z,70.20
2018-03-16T08:53:38.979Z,66.40
2018-03-16T08:54:39.003Z,68.30
2018-03-16T08:55:38.999Z,63.70
2018-03-16T08:56:38.999Z,64.10
2018-03-16T08:57:39.000Z,68.20
2018-03-16T08:58:38.998Z,65.50
2018-03-16T08:59:39.007Z,67.30
2018-03-16T09:00:39.703Z,68.00
2018-03-16T09:01:39.005Z,71.20
2018-03-16T09:02:39.003Z,67.90
2018-03-16T09:03:39.007Z,68.70
2018-03-16T09:04:39.027Z,67.60
2018-03-16T09:05:39.004Z,71.20
2018-03-16T09:06:39.014Z,68.70
2018-03-16T09:07:39.017Z,73.90
2018-03-16T09:08:39.150Z,73.60
2018-03-16T09:09:39.097Z,68.40
2018-03-16T09:10:39.035Z,73.00
2018-03-16T09:11:39.052Z,70.10
2018-03-16T09:12:39.084Z,72.10
2018-03-16T09:13:39.049Z,76.70
2018-03-16T09:14:39.060Z,73.80
2018-03-16T09:15:39.070Z,75.90
2018-03-16T09:16:39.035Z,76.50
2018-03-16T09:17:39.039Z,74.30
2018-03-16T09:18:39.166Z,76.70
2018-03-16T09:19:39.050Z,74.40
2018-03-16T09:20:39.046Z,74.60
2018-03-16T09:21:39.037Z,73.60
2018-03-16T09:22:39.047Z,72.80
2018-03-16T09:23:39.132Z,71.40
2018-03-16T09:24:39.059Z,69.20
2018-03-16T09:25:39.062Z,69.80
2018-03-16T09:26:39.057Z,67.90
2018-03-16T09:27:39.063Z,69.10
2018-03-16T09:28:39.070Z,70.80
2018-03-16T09:29:39.069Z,70.30
2018-03-16T09:30:39.063Z,69.70
2018-03-16T09:31:39.091Z,71.30
2018-03-16T09:32:39.083Z,71.10
2018-03-16T09:33:39.071Z,63.00
2018-03-16T09:34:39.066Z,62.40
2018-03-16T09:35:39.088Z,64.80
2018-03-16T09:36:39.100Z,59.00
2018-03-16T09:37:39.078Z,58.30
2018-03-16T09:38:39.085Z,58.00
2018-03-16T09:39:39.096Z,55.20
2018-03-16T09:40:39.080Z,55.40
2018-03-16T09:41:39.088Z,55.00
2018-03-16T09:42:39.084Z,50.20
2018-03-16T09:43:39.099Z,49.30
2018-03-16T09:44:39.089Z,49.70
2018-03-16T09:45:39.094Z,51.50
2018-03-16T09:46:39.100Z,51.90
2018-03-16T09:47:39.095Z,55.30
2018-03-16T09:48:39.099Z,55.20
2018-03-16T09:49:39.094Z,55.80
2018-03-16T09:50:39.144Z,51.20
2018-03-16T09:51:39.115Z,48.90
2018-03-16T09:52:39.137Z,48.10
2018-03-16T09:53:39.120Z,49.10
2018-03-16T09:54:39.126Z,47.30
2018-03-16T09:55:39.148Z,43.40
2018-03-16T09:56:39.131Z,44.70
2018-03-16T09:57:39.161Z,48.50
2018-03-16T09:58:39.120Z,42.30
2018-03-16T09:59:39.117Z,45.00
2018-03-16T10:00:39.130Z,41.70
2018-03-16T10:01:39.161Z,43.90
2018-03-16T10:02:39.124Z,43.90
2018-03-16T10:03:39.126Z,42.10
2018-03-16T10:04:39.129Z,42.60
2018-03-16T10:05:39.128Z,38.80
2018-03-16T10:06:39.135Z,41.70
2018-03-16T10:07:39.134Z,41.00
2018-03-16T10:08:39.135Z,40.50
2018-03-16T10:09:39.138Z,40.50
2018-03-16T10:10:39.139Z,43.20
2018-03-16T10:11:39.149Z,38.80
2018-03-16T10:12:39.162Z,39.40
2018-03-16T10:13:39.147Z,36.90
2018-03-16T10:14:39.153Z,36.70
2018-03-16T10:15:39.174Z,34.30
2018-03-16T10:16:39.182Z,34.70
2018-03-16T10:17:39.160Z,37.40
2018-03-16T10:18:39.172Z,37.30
2018-03-16T10:19:39.199Z,34.40
2018-03-16T10:20:39.160Z,35.60
2018-03-16T10:21:39.152Z,33.60
2018-03-16T10:22:39.167Z,33.40
2018-03-16T10:23:39.161Z,33.20
2018-03-16T10:24:39.167Z,34.80
2018-03-16T10:25:39.162Z,33.60
2018-03-16T10:26:39.267Z,35.30
2018-03-16T10:27:39.171Z,31.10
2018-03-16T10:28:39.171Z,33.30
2018-03-16T10:29:39.176Z,32.80
2018-03-16T10:30:39.183Z,33.40
2018-03-16T10:31:39.200Z,34.30
2018-03-16T10:32:39.188Z,35.30
2018-03-16T10:33:39.195Z,33.70
2018-03-16T10:34:39.189Z,31.00
2018-03-16T10:35:39.207Z,30.80
2018-03-16T10:36:39.212Z,32.60
2018-03-16T10:37:39.201Z,31.20
2018-03-16T10:38:39.192Z,31.40
2018-03-16T10:39:39.200Z,30.60
2018-03-16T10:40:39.237Z,31.50
2018-03-16T10:41:39.192Z,30.10
2018-03-16T10:42:39.197Z,30.30
2018-03-16T10:43:39.204Z,29.10
2018-03-16T10:44:39.204Z,32.00
2018-03-16T10:45:39.197Z,30.00
2018-03-16T10:46:39.203Z,31.20
2018-03-16T10:47:39.215Z,32.90
2018-03-16T10:48:39.209Z,32.60
2018-03-16T10:49:39.214Z,30.60
2018-03-16T10:50:39.230Z,29.50
2018-03-16T10:51:39.225Z,30.10
2018-03-16T10:52:39.258Z,28.70
2018-03-16T10:53:39.227Z,28.70
2018-03-16T10:54:39.223Z,29.40
2018-03-16T10:55:39.229Z,31.60
2018-03-16T10:56:39.250Z,29.80
2018-03-16T10:57:39.221Z,27.60
2018-03-16T10:58:39.227Z,27.90
2018-03-16T10:59:39.252Z,29.60
2018-03-16T11:00:39.237Z,28.20
2018-03-16T11:01:39.248Z,28.60
2018-03-16T11:02:39.265Z,29.90
2018-03-16T11:03:40.214Z,29.00
2018-03-16T11:04:39.242Z,27.90
2018-03-16T11:05:39.235Z,29.10
2018-03-16T11:06:39.270Z,29.40
2018-03-16T11:07:39.247Z,27.30
2018-03-16T11:08:39.271Z,26.20
2018-03-16T11:09:39.253Z,28.30
2018-03-16T11:10:39.278Z,28.20
2018-03-16T11:11:39.260Z,29.80
2018-03-16T11:12:39.255Z,30.20
2018-03-16T11:13:39.270Z,28.90
2018-03-16T11:14:39.272Z,28.90
2018-03-16T11:15:39.278Z,28.70
2018-03-16T11:16:39.268Z,27.20
2018-03-16T11:17:39.269Z,26.10
2018-03-16T11:18:39.275Z,27.50
2018-03-16T11:19:39.277Z,26.40
2018-03-16T11:20:39.286Z,26.80
2018-03-16T11:21:39.284Z,27.60
2018-03-16T11:22:39.290Z,29.70
2018-03-16T11:23:40.240Z,27.20
2018-03-16T11:24:39.331Z,25.70
2018-03-16T11:25:39.305Z,25.50
2018-03-16T11:26:39.307Z,25.80
2018-03-16T11:27:39.299Z,26.50
2018-03-16T11:28:39.295Z,25.80
2018-03-16T11:29:39.291Z,25.60
2018-03-16T11:30:39.306Z,25.60
2018-03-16T11:31:39.306Z,23.40
2018-03-16T11:32:39.303Z,21.80
2018-03-16T11:33:39.301Z,22.40
2018-03-16T11:34:39.305Z,22.40
2018-03-16T11:35:39.334Z,22.30
2018-03-16T11:36:39.323Z,21.30
2018-03-16T11:37:39.312Z,21.90
2018-03-16T11:38:39.312Z,21.50
2018-03-16T11:39:39.320Z,20.80
2018-03-16T11:40:39.376Z,21.30
2018-03-16T11:41:39.415Z,21.40
2018-03-16T11:42:39.368Z,21.60
2018-03-16T11:43:39.344Z,22.70
2018-03-16T11:44:39.340Z,22.90
2018-03-16T11:45:39.340Z,23.40
2018-03-16T11:46:39.338Z,22.40
2018-03-16T11:47:39.355Z,21.20
2018-03-16T11:48:39.347Z,22.30
2018-03-16T11:49:39.467Z,22.50
2018-03-16T11:50:39.503Z,23.90
2018-03-16T11:51:39.346Z,21.10
2018-03-16T11:52:39.342Z,21.90
2018-03-16T11:53:39.496Z,21.50
2018-03-16T11:54:39.351Z,20.80
2018-03-16T11:55:39.350Z,22.20
2018-03-16T11:56:39.360Z,20.60
2018-03-16T11:57:39.564Z,21.10
2018-03-16T11:58:39.356Z,20.40
2018-03-16T11:59:39.497Z,22.20
2018-03-16T12:00:39.363Z,20.50
2018-03-16T12:01:39.370Z,20.80
2018-03-16T12:02:39.375Z,20.30
2018-03-16T12:03:39.403Z,20.50
2018-03-16T12:04:39.377Z,19.90
2018-03-16T12:05:39.606Z,18.80
2018-03-16T12:06:39.375Z,19.50
2018-03-16T12:07:39.382Z,19.30
2018-03-16T12:08:39.383Z,19.50
2018-03-16T12:09:39.381Z,19.50
2018-03-16T12:10:39.392Z,19.50
2018-03-16T12:11:39.387Z,20.40
2018-03-16T12:12:39.389Z,20.80
2018-03-16T12:13:39.398Z,19.10
2018-03-16T12:14:39.386Z,19.40
2018-03-16T12:15:39.396Z,20.50
2018-03-16T12:16:39.424Z,19.70
2018-03-16T12:17:39.410Z,20.00
2018-03-16T12:18:39.415Z,18.80
2018-03-16T12:19:39.405Z,19.80
2018-03-16T12:20:39.446Z,19.80
2018-03-16T12:21:39.426Z,19.80
2018-03-16T12:22:39.413Z,20.30
2018-03-16T12:23:39.407Z,18.20
2018-03-16T12:24:39.420Z,19.70
2018-03-16T12:25:39.415Z,20.60
2018-03-16T12:26:39.420Z,20.50
2018-03-16T12:27:39.414Z,21.60
2018-03-16T12:28:49.696Z,20.30
2018-03-16T12:29:39.426Z,19.90
2018-03-16T12:30:39.424Z,20.00
2018-03-16T12:31:39.423Z,18.70
2018-03-16T12:32:39.423Z,20.70
2018-03-16T12:33:39.437Z,20.00
2018-03-16T12:34:39.435Z,19.50
2018-03-16T12:35:39.463Z,19.50
2018-03-16T12:36:39.445Z,21.10
2018-03-16T12:37:39.439Z,19.60
2018-03-16T12:38:39.435Z,20.60
2018-03-16T12:39:39.450Z,20.30
2018-03-16T12:40:39.448Z,19.30
2018-03-16T12:41:39.449Z,19.80
2018-03-16T12:42:39.444Z,19.50
2018-03-16T12:43:39.458Z,19.50
2018-03-16T12:44:39.457Z,19.40
2018-03-16T12:45:39.452Z,21.10
2018-03-16T12:46:39.456Z,20.40